sensor_id;sensor_type;location;lat;lon;timestamp;P1;durP1;ratioP1;P2;durP2;ratioP2
72127;SDS011;60000;51.030;7.024;2023-05-07T00:01:02;4.13;;;1.40;;
72127;SDS011;60000;51.030;7.024;2023-05-07T00:03:27;2.30;;;1.03;;
72127;SDS011;60000;51.030;7.024;2023-05-07T00:05:52;2.60;;;1.23;;
72127;SDS011;60000;51.030;7.024;2023-05-07T00:08:18;2.93;;;1.20;;
72127;SDS011;60000;51.030;7.024;2023-05-07T00:10:44;3.85;;;1.30;;
72127;SDS011;60000;51.030;7.024;2023-05-07T00:13:09;2.63;;;1.10;;
72127;SDS011;60000;51.030;7.024;2023-05-07T00:15:35;2.83;;;1.10;;
72127;SDS011;60000;51.030;7.024;2023-05-07T00:18:00;2.88;;;1.30;;
72127;SDS011;60000;51.030;7.024;2023-05-07T00:20:25;3.37;;;1.30;;
72127;SDS011;60000;51.030;7.024;2023-05-07T00:22:51;3.03;;;1.13;;
72127;SDS011;60000;51.030;7.024;2023-05-07T00:25:16;3.73;;;1.37;;
72127;SDS011;60000;51.030;7.024;2023-05-07T00:27:41;3.47;;;1.30;;
72127;SDS011;60000;51.030;7.024;2023-05-07T00:30:07;4.60;;;1.70;;
72127;SDS011;60000;51.030;7.024;2023-05-07T00:32:33;3.55;;;1.45;;
72127;SDS011;60000;51.030;7.024;2023-05-07T00:34:58;3.43;;;1.30;;
72127;SDS011;60000;51.030;7.024;2023-05-07T00:37:24;3.63;;;1.45;;
72127;SDS011;60000;51.030;7.024;2023-05-07T00:39:49;3.15;;;1.45;;
72127;SDS011;60000;51.030;7.024;2023-05-07T00:42:14;4.20;;;1.80;;
72127;SDS011;60000;51.030;7.024;2023-05-07T00:44:41;4.70;;;1.83;;
72127;SDS011;60000;51.030;7.024;2023-05-07T00:47:06;4.03;;;1.50;;
72127;SDS011;60000;51.030;7.024;2023-05-07T00:49:35;3.87;;;1.50;;
72127;SDS011;60000;51.030;7.024;2023-05-07T00:52:03;4.22;;;1.50;;
72127;SDS011;60000;51.030;7.024;2023-05-07T00:54:30;3.78;;;1.52;;
72127;SDS011;60000;51.030;7.024;2023-05-07T00:56:55;3.80;;;1.60;;
72127;SDS011;60000;51.030;7.024;2023-05-07T00:59:21;4.00;;;1.50;;
72127;SDS011;60000;51.030;7.024;2023-05-07T01:01:46;4.13;;;1.70;;
72127;SDS011;60000;51.030;7.024;2023-05-07T01:04:12;3.97;;;1.80;;
72127;SDS011;60000;51.030;7.024;2023-05-07T01:06:37;4.03;;;1.60;;
72127;SDS011;60000;51.030;7.024;2023-05-07T01:09:02;5.00;;;1.70;;
72127;SDS011;60000;51.030;7.024;2023-05-07T01:11:29;4.07;;;1.60;;
72127;SDS011;60000;51.030;7.024;2023-05-07T01:13:55;4.03;;;1.63;;
72127;SDS011;60000;51.030;7.024;2023-05-07T01:16:21;3.95;;;1.50;;
72127;SDS011;60000;51.030;7.024;2023-05-07T01:18:47;3.80;;;1.50;;
72127;SDS011;60000;51.030;7.024;2023-05-07T01:21:13;3.45;;;1.45;;
72127;SDS011;60000;51.030;7.024;2023-05-07T01:23:41;3.27;;;1.37;;
72127;SDS011;60000;51.030;7.024;2023-05-07T01:26:07;3.22;;;1.35;;
72127;SDS011;60000;51.030;7.024;2023-05-07T01:28:32;3.27;;;1.30;;
72127;SDS011;60000;51.030;7.024;2023-05-07T01:31:00;3.50;;;1.20;;
72127;SDS011;60000;51.030;7.024;2023-05-07T01:33:27;3.20;;;1.20;;
72127;SDS011;60000;51.030;7.024;2023-05-07T01:35:56;2.30;;;1.00;;
72127;SDS011;60000;51.030;7.024;2023-05-07T01:38:25;3.13;;;1.20;;
72127;SDS011;60000;51.030;7.024;2023-05-07T01:40:51;2.73;;;1.10;;
72127;SDS011;60000;51.030;7.024;2023-05-07T01:43:18;2.67;;;1.10;;
72127;SDS011;60000;51.030;7.024;2023-05-07T01:45:44;3.35;;;1.13;;
72127;SDS011;60000;51.030;7.024;2023-05-07T01:48:10;2.38;;;1.05;;
72127;SDS011;60000;51.030;7.024;2023-05-07T01:50:37;2.72;;;1.10;;
72127;SDS011;60000;51.030;7.024;2023-05-07T01:53:03;3.27;;;1.20;;
72127;SDS011;60000;51.030;7.024;2023-05-07T01:55:29;2.67;;;0.90;;
72127;SDS011;60000;51.030;7.024;2023-05-07T01:57:54;2.78;;;1.17;;
72127;SDS011;60000;51.030;7.024;2023-05-07T02:00:19;2.83;;;1.10;;
72127;SDS011;60000;51.030;7.024;2023-05-07T02:02:45;2.70;;;1.10;;
72127;SDS011;60000;51.030;7.024;2023-05-07T02:05:10;2.83;;;1.10;;
72127;SDS011;60000;51.030;7.024;2023-05-07T02:07:36;3.15;;;1.20;;
72127;SDS011;60000;51.030;7.024;2023-05-07T02:10:01;2.50;;;1.10;;
72127;SDS011;60000;51.030;7.024;2023-05-07T02:12:27;2.80;;;1.20;;
72127;SDS011;60000;51.030;7.024;2023-05-07T02:14:53;2.30;;;0.90;;
72127;SDS011;60000;51.030;7.024;2023-05-07T02:17:18;2.50;;;1.00;;
72127;SDS011;60000;51.030;7.024;2023-05-07T02:19:44;3.63;;;1.30;;
72127;SDS011;60000;51.030;7.024;2023-05-07T02:22:09;2.80;;;1.17;;
72127;SDS011;60000;51.030;7.024;2023-05-07T02:24:35;2.85;;;1.13;;
72127;SDS011;60000;51.030;7.024;2023-05-07T02:27:00;2.60;;;1.07;;
72127;SDS011;60000;51.030;7.024;2023-05-07T02:29:26;2.80;;;1.20;;
72127;SDS011;60000;51.030;7.024;2023-05-07T02:31:51;2.95;;;1.05;;
72127;SDS011;60000;51.030;7.024;2023-05-07T02:34:18;3.65;;;1.48;;
72127;SDS011;60000;51.030;7.024;2023-05-07T02:36:43;3.08;;;1.20;;
72127;SDS011;60000;51.030;7.024;2023-05-07T02:39:09;3.53;;;1.50;;
72127;SDS011;60000;51.030;7.024;2023-05-07T02:41:34;2.73;;;1.10;;
72127;SDS011;60000;51.030;7.024;2023-05-07T02:43:59;3.17;;;1.30;;
72127;SDS011;60000;51.030;7.024;2023-05-07T02:46:25;2.75;;;1.30;;
72127;SDS011;60000;51.030;7.024;2023-05-07T02:48:50;2.97;;;1.30;;
72127;SDS011;60000;51.030;7.024;2023-05-07T02:51:17;2.47;;;1.10;;
72127;SDS011;60000;51.030;7.024;2023-05-07T02:53:44;3.65;;;1.10;;
72127;SDS011;60000;51.030;7.024;2023-05-07T02:56:09;2.97;;;1.33;;
72127;SDS011;60000;51.030;7.024;2023-05-07T02:58:35;2.77;;;1.10;;
72127;SDS011;60000;51.030;7.024;2023-05-07T03:01:00;3.50;;;1.20;;
72127;SDS011;60000;51.030;7.024;2023-05-07T03:03:25;2.67;;;1.10;;
72127;SDS011;60000;51.030;7.024;2023-05-07T03:05:51;3.40;;;1.30;;
72127;SDS011;60000;51.030;7.024;2023-05-07T03:08:16;4.20;;;1.40;;
72127;SDS011;60000;51.030;7.024;2023-05-07T03:10:41;3.23;;;1.20;;
72127;SDS011;60000;51.030;7.024;2023-05-07T03:13:07;3.07;;;1.30;;
72127;SDS011;60000;51.030;7.024;2023-05-07T03:15:32;2.90;;;1.20;;
72127;SDS011;60000;51.030;7.024;2023-05-07T03:17:57;2.83;;;1.10;;
72127;SDS011;60000;51.030;7.024;2023-05-07T03:20:23;2.10;;;1.00;;
72127;SDS011;60000;51.030;7.024;2023-05-07T03:22:48;3.23;;;1.30;;
72127;SDS011;60000;51.030;7.024;2023-05-07T03:25:13;2.60;;;1.13;;
72127;SDS011;60000;51.030;7.024;2023-05-07T03:27:42;2.55;;;1.20;;
72127;SDS011;60000;51.030;7.024;2023-05-07T03:30:07;2.97;;;1.10;;
72127;SDS011;60000;51.030;7.024;2023-05-07T03:32:33;2.55;;;1.15;;
72127;SDS011;60000;51.030;7.024;2023-05-07T03:35:00;2.47;;;1.00;;
72127;SDS011;60000;51.030;7.024;2023-05-07T03:37:25;2.58;;;1.15;;
72127;SDS011;60000;51.030;7.024;2023-05-07T03:39:51;2.83;;;1.10;;
72127;SDS011;60000;51.030;7.024;2023-05-07T03:42:16;2.53;;;1.10;;
72127;SDS011;60000;51.030;7.024;2023-05-07T03:44:41;2.70;;;1.03;;
72127;SDS011;60000;51.030;7.024;2023-05-07T03:47:07;2.75;;;1.10;;
72127;SDS011;60000;51.030;7.024;2023-05-07T03:49:32;2.15;;;1.10;;
72127;SDS011;60000;51.030;7.024;2023-05-07T03:51:58;2.10;;;0.87;;
72127;SDS011;60000;51.030;7.024;2023-05-07T03:54:23;2.43;;;1.00;;
72127;SDS011;60000;51.030;7.024;2023-05-07T03:56:48;2.10;;;0.90;;
72127;SDS011;60000;51.030;7.024;2023-05-07T03:59:14;2.43;;;0.90;;
72127;SDS011;60000;51.030;7.024;2023-05-07T04:01:39;3.28;;;1.33;;
72127;SDS011;60000;51.030;7.024;2023-05-07T04:04:04;2.33;;;1.07;;
72127;SDS011;60000;51.030;7.024;2023-05-07T04:06:30;2.43;;;1.00;;
72127;SDS011;60000;51.030;7.024;2023-05-07T04:08:56;3.40;;;1.30;;
72127;SDS011;60000;51.030;7.024;2023-05-07T04:11:21;2.63;;;1.20;;
72127;SDS011;60000;51.030;7.024;2023-05-07T04:13:46;3.27;;;1.30;;
72127;SDS011;60000;51.030;7.024;2023-05-07T04:16:12;2.83;;;1.30;;
72127;SDS011;60000;51.030;7.024;2023-05-07T04:18:37;2.47;;;1.10;;
72127;SDS011;60000;51.030;7.024;2023-05-07T04:21:03;2.20;;;0.90;;
72127;SDS011;60000;51.030;7.024;2023-05-07T04:23:28;3.00;;;1.27;;
72127;SDS011;60000;51.030;7.024;2023-05-07T04:25:53;2.60;;;1.17;;
72127;SDS011;60000;51.030;7.024;2023-05-07T04:28:19;3.00;;;1.27;;
72127;SDS011;60000;51.030;7.024;2023-05-07T04:30:45;2.47;;;0.97;;
72127;SDS011;60000;51.030;7.024;2023-05-07T04:33:10;2.15;;;0.90;;
72127;SDS011;60000;51.030;7.024;2023-05-07T04:35:36;1.80;;;0.80;;
72127;SDS011;60000;51.030;7.024;2023-05-07T04:38:02;2.77;;;1.20;;
72127;SDS011;60000;51.030;7.024;2023-05-07T04:40:27;2.40;;;1.05;;
72127;SDS011;60000;51.030;7.024;2023-05-07T04:42:52;3.43;;;1.10;;
72127;SDS011;60000;51.030;7.024;2023-05-07T04:45:18;2.60;;;1.13;;
72127;SDS011;60000;51.030;7.024;2023-05-07T04:47:43;3.07;;;1.20;;
72127;SDS011;60000;51.030;7.024;2023-05-07T04:50:09;2.88;;;1.10;;
72127;SDS011;60000;51.030;7.024;2023-05-07T04:52:35;3.10;;;1.20;;
72127;SDS011;60000;51.030;7.024;2023-05-07T04:55:01;3.92;;;1.60;;
72127;SDS011;60000;51.030;7.024;2023-05-07T04:57:26;3.10;;;1.20;;
72127;SDS011;60000;51.030;7.024;2023-05-07T04:59:52;2.97;;;1.20;;
72127;SDS011;60000;51.030;7.024;2023-05-07T05:02:21;3.27;;;1.20;;
72127;SDS011;60000;51.030;7.024;2023-05-07T05:04:46;3.03;;;1.20;;
72127;SDS011;60000;51.030;7.024;2023-05-07T05:07:11;3.95;;;1.75;;
72127;SDS011;60000;51.030;7.024;2023-05-07T05:09:37;3.20;;;1.30;;
72127;SDS011;60000;51.030;7.024;2023-05-07T05:12:02;4.80;;;1.50;;
72127;SDS011;60000;51.030;7.024;2023-05-07T05:14:28;4.32;;;1.70;;
72127;SDS011;60000;51.030;7.024;2023-05-07T05:16:54;4.55;;;1.35;;
72127;SDS011;60000;51.030;7.024;2023-05-07T05:19:19;3.35;;;1.23;;
72127;SDS011;60000;51.030;7.024;2023-05-07T05:21:45;4.43;;;1.40;;
72127;SDS011;60000;51.030;7.024;2023-05-07T05:24:10;4.03;;;1.60;;
72127;SDS011;60000;51.030;7.024;2023-05-07T05:26:35;3.90;;;1.60;;
72127;SDS011;60000;51.030;7.024;2023-05-07T05:29:01;4.17;;;1.37;;
72127;SDS011;60000;51.030;7.024;2023-05-07T05:31:26;3.77;;;1.50;;
72127;SDS011;60000;51.030;7.024;2023-05-07T05:33:51;3.73;;;1.30;;
72127;SDS011;60000;51.030;7.024;2023-05-07T05:36:17;3.60;;;1.10;;
72127;SDS011;60000;51.030;7.024;2023-05-07T05:38:42;3.67;;;1.45;;
72127;SDS011;60000;51.030;7.024;2023-05-07T05:41:09;4.13;;;1.40;;
72127;SDS011;60000;51.030;7.024;2023-05-07T05:43:34;2.70;;;1.10;;
72127;SDS011;60000;51.030;7.024;2023-05-07T05:46:00;3.20;;;1.30;;
72127;SDS011;60000;51.030;7.024;2023-05-07T05:48:25;4.00;;;1.50;;
72127;SDS011;60000;51.030;7.024;2023-05-07T05:50:57;3.70;;;1.50;;
72127;SDS011;60000;51.030;7.024;2023-05-07T05:53:22;3.33;;;1.20;;
72127;SDS011;60000;51.030;7.024;2023-05-07T05:55:47;3.07;;;1.30;;
72127;SDS011;60000;51.030;7.024;2023-05-07T05:58:13;2.90;;;1.25;;
72127;SDS011;60000;51.030;7.024;2023-05-07T06:00:40;3.70;;;1.20;;
72127;SDS011;60000;51.030;7.024;2023-05-07T06:03:05;3.87;;;1.30;;
72127;SDS011;60000;51.030;7.024;2023-05-07T06:05:31;3.83;;;1.70;;
72127;SDS011;60000;51.030;7.024;2023-05-07T06:07:56;3.80;;;1.37;;
72127;SDS011;60000;51.030;7.024;2023-05-07T06:10:21;3.47;;;1.57;;
72127;SDS011;60000;51.030;7.024;2023-05-07T06:12:49;3.78;;;1.50;;
72127;SDS011;60000;51.030;7.024;2023-05-07T06:15:14;3.17;;;1.30;;
72127;SDS011;60000;51.030;7.024;2023-05-07T06:17:40;3.95;;;1.80;;
72127;SDS011;60000;51.030;7.024;2023-05-07T06:20:05;3.80;;;1.40;;
72127;SDS011;60000;51.030;7.024;2023-05-07T06:22:31;4.00;;;1.52;;
72127;SDS011;60000;51.030;7.024;2023-05-07T06:24:57;4.05;;;1.67;;
72127;SDS011;60000;51.030;7.024;2023-05-07T06:27:22;4.70;;;1.67;;
72127;SDS011;60000;51.030;7.024;2023-05-07T06:29:48;4.47;;;1.60;;
72127;SDS011;60000;51.030;7.024;2023-05-07T06:32:13;4.70;;;1.85;;
72127;SDS011;60000;51.030;7.024;2023-05-07T06:34:39;3.17;;;1.37;;
72127;SDS011;60000;51.030;7.024;2023-05-07T06:37:05;3.88;;;1.50;;
72127;SDS011;60000;51.030;7.024;2023-05-07T06:39:31;4.13;;;1.48;;
72127;SDS011;60000;51.030;7.024;2023-05-07T06:41:57;3.10;;;1.40;;
72127;SDS011;60000;51.030;7.024;2023-05-07T06:44:22;3.60;;;1.52;;
72127;SDS011;60000;51.030;7.024;2023-05-07T06:46:48;3.83;;;1.50;;
72127;SDS011;60000;51.030;7.024;2023-05-07T06:49:13;3.43;;;1.50;;
72127;SDS011;60000;51.030;7.024;2023-05-07T06:51:39;4.10;;;1.40;;
72127;SDS011;60000;51.030;7.024;2023-05-07T06:54:04;3.58;;;1.30;;
72127;SDS011;60000;51.030;7.024;2023-05-07T06:56:30;4.80;;;1.87;;
72127;SDS011;60000;51.030;7.024;2023-05-07T06:58:56;4.18;;;1.40;;
72127;SDS011;60000;51.030;7.024;2023-05-07T07:01:21;4.83;;;1.50;;
72127;SDS011;60000;51.030;7.024;2023-05-07T07:03:47;3.60;;;1.50;;
72127;SDS011;60000;51.030;7.024;2023-05-07T07:06:12;4.10;;;1.53;;
72127;SDS011;60000;51.030;7.024;2023-05-07T07:08:38;3.30;;;1.30;;
72127;SDS011;60000;51.030;7.024;2023-05-07T07:11:07;4.13;;;1.50;;
72127;SDS011;60000;51.030;7.024;2023-05-07T07:13:33;5.65;;;1.70;;
72127;SDS011;60000;51.030;7.024;2023-05-07T07:15:59;6.50;;;2.00;;
72127;SDS011;60000;51.030;7.024;2023-05-07T07:18:24;4.15;;;1.60;;
72127;SDS011;60000;51.030;7.024;2023-05-07T07:20:50;4.50;;;1.67;;
72127;SDS011;60000;51.030;7.024;2023-05-07T07:23:15;5.53;;;1.70;;
72127;SDS011;60000;51.030;7.024;2023-05-07T07:25:40;4.90;;;1.47;;
72127;SDS011;60000;51.030;7.024;2023-05-07T07:28:06;3.95;;;1.58;;
72127;SDS011;60000;51.030;7.024;2023-05-07T07:30:31;4.37;;;1.50;;
72127;SDS011;60000;51.030;7.024;2023-05-07T07:32:57;4.80;;;1.47;;
72127;SDS011;60000;51.030;7.024;2023-05-07T07:35:27;4.55;;;1.85;;
72127;SDS011;60000;51.030;7.024;2023-05-07T07:37:56;4.82;;;1.80;;
72127;SDS011;60000;51.030;7.024;2023-05-07T07:40:22;3.77;;;1.53;;
72127;SDS011;60000;51.030;7.024;2023-05-07T07:42:47;3.72;;;1.50;;
72127;SDS011;60000;51.030;7.024;2023-05-07T07:45:13;4.57;;;1.67;;
72127;SDS011;60000;51.030;7.024;2023-05-07T07:47:39;4.50;;;1.73;;
72127;SDS011;60000;51.030;7.024;2023-05-07T07:50:05;4.45;;;1.83;;
72127;SDS011;60000;51.030;7.024;2023-05-07T07:52:31;4.47;;;1.73;;
72127;SDS011;60000;51.030;7.024;2023-05-07T07:54:56;5.30;;;1.60;;
72127;SDS011;60000;51.030;7.024;2023-05-07T07:57:21;5.67;;;1.53;;
72127;SDS011;60000;51.030;7.024;2023-05-07T07:59:47;4.30;;;1.80;;
72127;SDS011;60000;51.030;7.024;2023-05-07T08:02:12;6.23;;;1.90;;
72127;SDS011;60000;51.030;7.024;2023-05-07T08:04:37;4.40;;;2.10;;
72127;SDS011;60000;51.030;7.024;2023-05-07T08:07:03;4.57;;;1.87;;
72127;SDS011;60000;51.030;7.024;2023-05-07T08:09:28;3.65;;;1.40;;
72127;SDS011;60000;51.030;7.024;2023-05-07T08:11:54;3.97;;;1.50;;
72127;SDS011;60000;51.030;7.024;2023-05-07T08:14:19;4.40;;;1.43;;
72127;SDS011;60000;51.030;7.024;2023-05-07T08:16:45;6.95;;;2.00;;
72127;SDS011;60000;51.030;7.024;2023-05-07T08:19:10;4.60;;;1.70;;
72127;SDS011;60000;51.030;7.024;2023-05-07T08:21:38;5.03;;;1.90;;
72127;SDS011;60000;51.030;7.024;2023-05-07T08:24:04;5.45;;;2.20;;
72127;SDS011;60000;51.030;7.024;2023-05-07T08:26:33;3.60;;;1.63;;
72127;SDS011;60000;51.030;7.024;2023-05-07T08:28:58;4.88;;;2.40;;
72127;SDS011;60000;51.030;7.024;2023-05-07T08:31:23;3.97;;;1.73;;
72127;SDS011;60000;51.030;7.024;2023-05-07T08:33:49;4.63;;;1.88;;
72127;SDS011;60000;51.030;7.024;2023-05-07T08:36:15;4.67;;;1.60;;
72127;SDS011;60000;51.030;7.024;2023-05-07T08:38:40;4.57;;;1.40;;
72127;SDS011;60000;51.030;7.024;2023-05-07T08:41:09;4.10;;;1.40;;
72127;SDS011;60000;51.030;7.024;2023-05-07T08:43:38;5.00;;;1.40;;
72127;SDS011;60000;51.030;7.024;2023-05-07T08:46:05;4.68;;;1.50;;
72127;SDS011;60000;51.030;7.024;2023-05-07T08:48:34;3.78;;;1.42;;
72127;SDS011;60000;51.030;7.024;2023-05-07T08:51:00;3.63;;;1.58;;
72127;SDS011;60000;51.030;7.024;2023-05-07T08:53:27;3.33;;;1.37;;
72127;SDS011;60000;51.030;7.024;2023-05-07T08:55:52;3.70;;;1.70;;
72127;SDS011;60000;51.030;7.024;2023-05-07T08:58:18;5.30;;;1.73;;
72127;SDS011;60000;51.030;7.024;2023-05-07T09:00:44;7.68;;;1.90;;
72127;SDS011;60000;51.030;7.024;2023-05-07T09:03:09;4.43;;;1.80;;
72127;SDS011;60000;51.030;7.024;2023-05-07T09:05:38;3.97;;;1.90;;
72127;SDS011;60000;51.030;7.024;2023-05-07T09:08:05;6.32;;;1.80;;
72127;SDS011;60000;51.030;7.024;2023-05-07T09:10:33;3.97;;;1.90;;
72127;SDS011;60000;51.030;7.024;2023-05-07T09:12:58;3.53;;;1.80;;
72127;SDS011;60000;51.030;7.024;2023-05-07T09:15:26;3.83;;;1.52;;
72127;SDS011;60000;51.030;7.024;2023-05-07T09:17:52;3.85;;;1.50;;
72127;SDS011;60000;51.030;7.024;2023-05-07T09:20:18;3.90;;;1.60;;
72127;SDS011;60000;51.030;7.024;2023-05-07T09:22:44;3.30;;;1.50;;
72127;SDS011;60000;51.030;7.024;2023-05-07T09:25:10;5.00;;;1.77;;
72127;SDS011;60000;51.030;7.024;2023-05-07T09:27:36;4.18;;;1.50;;
72127;SDS011;60000;51.030;7.024;2023-05-07T09:30:08;3.53;;;1.45;;
72127;SDS011;60000;51.030;7.024;2023-05-07T09:32:35;4.90;;;2.10;;
72127;SDS011;60000;51.030;7.024;2023-05-07T09:35:03;4.63;;;1.60;;
72127;SDS011;60000;51.030;7.024;2023-05-07T09:37:39;7.45;;;1.45;;
72127;SDS011;60000;51.030;7.024;2023-05-07T09:40:06;4.28;;;1.45;;
72127;SDS011;60000;51.030;7.024;2023-05-07T09:42:32;5.78;;;1.40;;
72127;SDS011;60000;51.030;7.024;2023-05-07T09:44:58;3.78;;;1.50;;
72127;SDS011;60000;51.030;7.024;2023-05-07T09:47:24;4.37;;;1.60;;
72127;SDS011;60000;51.030;7.024;2023-05-07T09:49:56;4.18;;;2.03;;
72127;SDS011;60000;51.030;7.024;2023-05-07T09:52:24;4.40;;;1.90;;
72127;SDS011;60000;51.030;7.024;2023-05-07T09:54:53;3.92;;;1.65;;
72127;SDS011;60000;51.030;7.024;2023-05-07T09:57:20;5.28;;;1.55;;
72127;SDS011;60000;51.030;7.024;2023-05-07T09:59:48;4.37;;;1.43;;
72127;SDS011;60000;51.030;7.024;2023-05-07T10:02:14;5.13;;;1.30;;
72127;SDS011;60000;51.030;7.024;2023-05-07T10:04:41;3.63;;;1.63;;
72127;SDS011;60000;51.030;7.024;2023-05-07T10:07:06;4.00;;;1.70;;
72127;SDS011;60000;51.030;7.024;2023-05-07T10:09:32;4.65;;;1.30;;
72127;SDS011;60000;51.030;7.024;2023-05-07T10:12:00;3.17;;;1.25;;
72127;SDS011;60000;51.030;7.024;2023-05-07T10:14:25;4.27;;;1.70;;
72127;SDS011;60000;51.030;7.024;2023-05-07T10:16:52;3.63;;;1.45;;
72127;SDS011;60000;51.030;7.024;2023-05-07T10:19:18;4.50;;;1.50;;
72127;SDS011;60000;51.030;7.024;2023-05-07T10:21:44;4.97;;;1.70;;
72127;SDS011;60000;51.030;7.024;2023-05-07T10:24:19;4.82;;;1.55;;
72127;SDS011;60000;51.030;7.024;2023-05-07T10:26:48;4.38;;;1.58;;
72127;SDS011;60000;51.030;7.024;2023-05-07T10:31:48;5.18;;;1.42;;
72127;SDS011;60000;51.030;7.024;2023-05-07T10:34:23;5.90;;;1.45;;
72127;SDS011;60000;51.030;7.024;2023-05-07T10:36:52;3.08;;;1.27;;
72127;SDS011;60000;51.030;7.024;2023-05-07T10:39:20;4.03;;;1.30;;
72127;SDS011;60000;51.030;7.024;2023-05-07T10:41:46;3.97;;;1.43;;
72127;SDS011;60000;51.030;7.024;2023-05-07T10:44:15;3.80;;;1.40;;
72127;SDS011;60000;51.030;7.024;2023-05-07T10:47:06;4.35;;;1.48;;
72127;SDS011;60000;51.030;7.024;2023-05-07T10:49:34;3.93;;;1.63;;
72127;SDS011;60000;51.030;7.024;2023-05-07T10:52:15;4.32;;;1.95;;
72127;SDS011;60000;51.030;7.024;2023-05-07T10:54:45;3.42;;;1.58;;
72127;SDS011;60000;51.030;7.024;2023-05-07T11:00:48;3.60;;;1.35;;
72127;SDS011;60000;51.030;7.024;2023-05-07T11:05:25;2.97;;;1.20;;
72127;SDS011;60000;51.030;7.024;2023-05-07T11:07:55;4.15;;;1.52;;
72127;SDS011;60000;51.030;7.024;2023-05-07T11:10:21;4.20;;;1.67;;
72127;SDS011;60000;51.030;7.024;2023-05-07T11:12:50;2.87;;;1.30;;
72127;SDS011;60000;51.030;7.024;2023-05-07T11:18:02;3.03;;;1.27;;
72127;SDS011;60000;51.030;7.024;2023-05-07T11:20:50;3.33;;;1.38;;
72127;SDS011;60000;51.030;7.024;2023-05-07T11:26:05;4.13;;;1.37;;
72127;SDS011;60000;51.030;7.024;2023-05-07T11:28:36;3.67;;;1.40;;
72127;SDS011;60000;51.030;7.024;2023-05-07T11:31:05;5.25;;;2.08;;
72127;SDS011;60000;51.030;7.024;2023-05-07T11:33:32;3.85;;;1.48;;
72127;SDS011;60000;51.030;7.024;2023-05-07T11:35:58;3.27;;;1.30;;
72127;SDS011;60000;51.030;7.024;2023-05-07T11:38:24;3.50;;;1.40;;
72127;SDS011;60000;51.030;7.024;2023-05-07T11:40:50;4.40;;;1.33;;
72127;SDS011;60000;51.030;7.024;2023-05-07T11:43:25;5.13;;;1.30;;
72127;SDS011;60000;51.030;7.024;2023-05-07T11:45:51;3.13;;;1.27;;
72127;SDS011;60000;51.030;7.024;2023-05-07T11:48:16;4.60;;;1.90;;
72127;SDS011;60000;51.030;7.024;2023-05-07T11:53:17;3.07;;;1.40;;
72127;SDS011;60000;51.030;7.024;2023-05-07T11:55:43;3.65;;;1.63;;
72127;SDS011;60000;51.030;7.024;2023-05-07T11:58:10;5.85;;;1.77;;
72127;SDS011;60000;51.030;7.024;2023-05-07T12:00:36;4.63;;;1.80;;
72127;SDS011;60000;51.030;7.024;2023-05-07T12:03:03;5.17;;;1.57;;
72127;SDS011;60000;51.030;7.024;2023-05-07T12:05:29;4.10;;;2.05;;
72127;SDS011;60000;51.030;7.024;2023-05-07T12:07:57;3.27;;;1.40;;
72127;SDS011;60000;51.030;7.024;2023-05-07T12:10:22;3.10;;;1.40;;
72127;SDS011;60000;51.030;7.024;2023-05-07T12:12:49;3.77;;;1.13;;
72127;SDS011;60000;51.030;7.024;2023-05-07T12:15:15;3.85;;;1.33;;
72127;SDS011;60000;51.030;7.024;2023-05-07T12:17:42;2.67;;;1.20;;
72127;SDS011;60000;51.030;7.024;2023-05-07T12:20:08;4.03;;;1.53;;
72127;SDS011;60000;51.030;7.024;2023-05-07T12:22:34;3.28;;;1.30;;
72127;SDS011;60000;51.030;7.024;2023-05-07T12:25:00;3.72;;;1.48;;
72127;SDS011;60000;51.030;7.024;2023-05-07T12:27:25;2.43;;;1.23;;
72127;SDS011;60000;51.030;7.024;2023-05-07T12:29:51;3.37;;;1.40;;
72127;SDS011;60000;51.030;7.024;2023-05-07T12:32:17;5.97;;;1.48;;
72127;SDS011;60000;51.030;7.024;2023-05-07T12:34:44;3.37;;;1.40;;
72127;SDS011;60000;51.030;7.024;2023-05-07T12:37:10;3.42;;;1.27;;
72127;SDS011;60000;51.030;7.024;2023-05-07T12:39:36;3.80;;;1.52;;
72127;SDS011;60000;51.030;7.024;2023-05-07T12:42:01;3.03;;;1.30;;
72127;SDS011;60000;51.030;7.024;2023-05-07T12:44:30;3.10;;;1.37;;
72127;SDS011;60000;51.030;7.024;2023-05-07T12:46:57;3.15;;;1.25;;
72127;SDS011;60000;51.030;7.024;2023-05-07T12:49:23;3.10;;;1.47;;
72127;SDS011;60000;51.030;7.024;2023-05-07T12:51:49;3.83;;;1.40;;
72127;SDS011;60000;51.030;7.024;2023-05-07T12:54:30;4.10;;;1.23;;
72127;SDS011;60000;51.030;7.024;2023-05-07T12:57:02;4.00;;;1.58;;
72127;SDS011;60000;51.030;7.024;2023-05-07T12:59:32;4.05;;;1.58;;
72127;SDS011;60000;51.030;7.024;2023-05-07T13:01:58;4.00;;;1.75;;
72127;SDS011;60000;51.030;7.024;2023-05-07T13:04:24;3.30;;;1.30;;
72127;SDS011;60000;51.030;7.024;2023-05-07T13:06:50;3.17;;;1.48;;
72127;SDS011;60000;51.030;7.024;2023-05-07T13:09:15;3.77;;;1.77;;
72127;SDS011;60000;51.030;7.024;2023-05-07T13:11:41;4.07;;;1.70;;
72127;SDS011;60000;51.030;7.024;2023-05-07T13:14:06;3.07;;;1.47;;
72127;SDS011;60000;51.030;7.024;2023-05-07T13:16:31;4.03;;;1.40;;
72127;SDS011;60000;51.030;7.024;2023-05-07T13:18:57;4.43;;;1.37;;
72127;SDS011;60000;51.030;7.024;2023-05-07T13:21:22;3.63;;;1.40;;
72127;SDS011;60000;51.030;7.024;2023-05-07T13:23:47;2.77;;;1.37;;
72127;SDS011;60000;51.030;7.024;2023-05-07T13:26:13;3.73;;;1.40;;
72127;SDS011;60000;51.030;7.024;2023-05-07T13:28:38;2.77;;;1.10;;
72127;SDS011;60000;51.030;7.024;2023-05-07T13:31:03;3.47;;;1.20;;
72127;SDS011;60000;51.030;7.024;2023-05-07T13:33:28;4.03;;;1.57;;
72127;SDS011;60000;51.030;7.024;2023-05-07T13:35:54;3.38;;;1.23;;
72127;SDS011;60000;51.030;7.024;2023-05-07T13:38:21;3.43;;;1.50;;
72127;SDS011;60000;51.030;7.024;2023-05-07T13:40:47;3.55;;;1.80;;
72127;SDS011;60000;51.030;7.024;2023-05-07T13:43:13;3.73;;;1.60;;
72127;SDS011;60000;51.030;7.024;2023-05-07T13:45:38;4.87;;;1.57;;
72127;SDS011;60000;51.030;7.024;2023-05-07T13:48:03;4.53;;;1.50;;
72127;SDS011;60000;51.030;7.024;2023-05-07T13:50:29;2.67;;;1.20;;
72127;SDS011;60000;51.030;7.024;2023-05-07T13:52:55;3.60;;;1.50;;
72127;SDS011;60000;51.030;7.024;2023-05-07T13:55:21;5.00;;;2.33;;
72127;SDS011;60000;51.030;7.024;2023-05-07T13:57:51;3.67;;;1.52;;
72127;SDS011;60000;51.030;7.024;2023-05-07T14:00:20;4.10;;;1.53;;
72127;SDS011;60000;51.030;7.024;2023-05-07T14:02:45;3.60;;;1.40;;
72127;SDS011;60000;51.030;7.024;2023-05-07T14:05:11;4.13;;;1.60;;
72127;SDS011;60000;51.030;7.024;2023-05-07T14:07:38;4.33;;;1.60;;
72127;SDS011;60000;51.030;7.024;2023-05-07T14:10:03;5.13;;;1.70;;
72127;SDS011;60000;51.030;7.024;2023-05-07T14:12:29;4.83;;;1.60;;
72127;SDS011;60000;51.030;7.024;2023-05-07T14:14:55;5.25;;;1.88;;
72127;SDS011;60000;51.030;7.024;2023-05-07T14:17:21;5.03;;;2.40;;
72127;SDS011;60000;51.030;7.024;2023-05-07T14:19:48;7.10;;;3.42;;
72127;SDS011;60000;51.030;7.024;2023-05-07T14:22:13;8.37;;;4.10;;
72127;SDS011;60000;51.030;7.024;2023-05-07T14:24:39;6.30;;;2.83;;
72127;SDS011;60000;51.030;7.024;2023-05-07T14:27:05;4.73;;;1.70;;
72127;SDS011;60000;51.030;7.024;2023-05-07T14:29:31;4.90;;;1.75;;
72127;SDS011;60000;51.030;7.024;2023-05-07T14:31:56;4.63;;;1.70;;
72127;SDS011;60000;51.030;7.024;2023-05-07T14:34:21;5.60;;;1.70;;
72127;SDS011;60000;51.030;7.024;2023-05-07T14:36:47;3.73;;;1.60;;
72127;SDS011;60000;51.030;7.024;2023-05-07T14:39:12;3.67;;;1.50;;
72127;SDS011;60000;51.030;7.024;2023-05-07T14:41:38;3.30;;;1.30;;
72127;SDS011;60000;51.030;7.024;2023-05-07T14:44:03;6.60;;;2.10;;
72127;SDS011;60000;51.030;7.024;2023-05-07T14:46:29;5.63;;;2.10;;
72127;SDS011;60000;51.030;7.024;2023-05-07T14:48:55;7.47;;;2.20;;
72127;SDS011;60000;51.030;7.024;2023-05-07T14:51:21;6.45;;;2.38;;
72127;SDS011;60000;51.030;7.024;2023-05-07T14:53:47;5.03;;;2.10;;
72127;SDS011;60000;51.030;7.024;2023-05-07T14:56:12;6.37;;;2.30;;
72127;SDS011;60000;51.030;7.024;2023-05-07T14:58:37;5.13;;;2.40;;